sensor_id;sensor_type;location;lat;lon;timestamp;P1;durP1;ratioP1;P2;durP2;ratioP2
52210;SDS011;38179;52.756;6.906;2022-08-01T00:01:57;25.23;;;23.15;;
52210;SDS011;38179;52.756;6.906;2022-08-01T00:04:23;24.25;;;22.38;;
52210;SDS011;38179;52.756;6.906;2022-08-01T00:06:49;24.50;;;22.50;;
52210;SDS011;38179;52.756;6.906;2022-08-01T00:09:15;24.48;;;22.30;;
52210;SDS011;38179;52.756;6.906;2022-08-01T00:11:40;24.17;;;22.27;;
52210;SDS011;38179;52.756;6.906;2022-08-01T00:14:07;25.60;;;23.63;;
52210;SDS011;38179;52.756;6.906;2022-08-01T00:16:35;26.45;;;24.27;;
52210;SDS011;38179;52.756;6.906;2022-08-01T00:19:01;25.38;;;23.45;;
52210;SDS011;38179;52.756;6.906;2022-08-01T00:21:27;26.35;;;23.35;;
52210;SDS011;38179;52.756;6.906;2022-08-01T00:23:53;26.08;;;23.90;;
52210;SDS011;38179;52.756;6.906;2022-08-01T00:26:19;26.05;;;23.95;;
52210;SDS011;38179;52.756;6.906;2022-08-01T00:28:45;25.10;;;23.17;;
52210;SDS011;38179;52.756;6.906;2022-08-01T00:31:11;27.23;;;25.02;;
52210;SDS011;38179;52.756;6.906;2022-08-01T00:33:37;27.00;;;24.45;;
52210;SDS011;38179;52.756;6.906;2022-08-01T00:36:03;27.63;;;24.92;;
52210;SDS011;38179;52.756;6.906;2022-08-01T00:38:29;26.77;;;24.60;;
52210;SDS011;38179;52.756;6.906;2022-08-01T00:40:55;27.63;;;25.23;;
52210;SDS011;38179;52.756;6.906;2022-08-01T00:43:21;27.55;;;25.13;;
52210;SDS011;38179;52.756;6.906;2022-08-01T00:45:47;26.13;;;24.08;;
52210;SDS011;38179;52.756;6.906;2022-08-01T00:48:13;28.02;;;25.52;;
52210;SDS011;38179;52.756;6.906;2022-08-01T00:50:39;27.48;;;25.08;;
52210;SDS011;38179;52.756;6.906;2022-08-01T00:53:05;27.15;;;24.70;;
52210;SDS011;38179;52.756;6.906;2022-08-01T00:55:32;27.30;;;24.80;;
52210;SDS011;38179;52.756;6.906;2022-08-01T00:57:58;26.38;;;24.08;;
52210;SDS011;38179;52.756;6.906;2022-08-01T01:00:24;26.45;;;24.25;;
52210;SDS011;38179;52.756;6.906;2022-08-01T01:02:50;27.73;;;25.25;;
52210;SDS011;38179;52.756;6.906;2022-08-01T01:05:16;26.33;;;24.02;;
52210;SDS011;38179;52.756;6.906;2022-08-01T01:10:32;26.67;;;24.42;;
52210;SDS011;38179;52.756;6.906;2022-08-01T01:13:19;26.38;;;24.27;;
52210;SDS011;38179;52.756;6.906;2022-08-01T01:15:56;25.95;;;23.88;;
52210;SDS011;38179;52.756;6.906;2022-08-01T01:18:24;26.98;;;24.67;;
52210;SDS011;38179;52.756;6.906;2022-08-01T01:26:15;28.10;;;25.60;;
52210;SDS011;38179;52.756;6.906;2022-08-01T01:31:42;26.85;;;24.73;;
52210;SDS011;38179;52.756;6.906;2022-08-01T01:34:15;29.63;;;27.02;;
52210;SDS011;38179;52.756;6.906;2022-08-01T01:36:43;29.65;;;27.10;;
52210;SDS011;38179;52.756;6.906;2022-08-01T01:39:11;29.10;;;26.35;;
52210;SDS011;38179;52.756;6.906;2022-08-01T01:41:39;29.38;;;26.88;;
52210;SDS011;38179;52.756;6.906;2022-08-01T01:44:07;29.55;;;27.15;;
52210;SDS011;38179;52.756;6.906;2022-08-01T01:46:34;28.83;;;26.30;;
52210;SDS011;38179;52.756;6.906;2022-08-01T01:49:01;29.20;;;26.60;;
52210;SDS011;38179;52.756;6.906;2022-08-01T01:51:28;29.73;;;27.10;;
52210;SDS011;38179;52.756;6.906;2022-08-01T01:53:55;26.75;;;24.35;;
52210;SDS011;38179;52.756;6.906;2022-08-01T01:56:23;26.10;;;23.88;;
52210;SDS011;38179;52.756;6.906;2022-08-01T01:58:55;30.13;;;27.33;;
52210;SDS011;38179;52.756;6.906;2022-08-01T02:01:25;29.40;;;26.65;;
52210;SDS011;38179;52.756;6.906;2022-08-01T02:03:53;29.10;;;26.58;;
52210;SDS011;38179;52.756;6.906;2022-08-01T02:06:22;29.33;;;26.70;;
52210;SDS011;38179;52.756;6.906;2022-08-01T02:08:49;29.50;;;26.60;;
52210;SDS011;38179;52.756;6.906;2022-08-01T02:11:18;29.98;;;27.38;;
52210;SDS011;38179;52.756;6.906;2022-08-01T02:13:55;29.35;;;26.70;;
52210;SDS011;38179;52.756;6.906;2022-08-01T02:16:33;29.52;;;26.92;;
52210;SDS011;38179;52.756;6.906;2022-08-01T02:19:01;29.63;;;26.90;;
52210;SDS011;38179;52.756;6.906;2022-08-01T02:21:38;27.38;;;25.13;;
52210;SDS011;38179;52.756;6.906;2022-08-01T02:24:10;29.85;;;27.00;;
52210;SDS011;38179;52.756;6.906;2022-08-01T02:26:41;26.42;;;24.23;;
52210;SDS011;38179;52.756;6.906;2022-08-01T02:29:13;29.50;;;26.77;;
52210;SDS011;38179;52.756;6.906;2022-08-01T02:31:43;27.67;;;25.23;;
52210;SDS011;38179;52.756;6.906;2022-08-01T02:34:13;25.20;;;23.15;;
52210;SDS011;38179;52.756;6.906;2022-08-01T02:36:43;26.35;;;24.05;;
52210;SDS011;38179;52.756;6.906;2022-08-01T02:39:13;25.33;;;23.23;;
52210;SDS011;38179;52.756;6.906;2022-08-01T02:41:42;25.48;;;23.00;;
52210;SDS011;38179;52.756;6.906;2022-08-01T02:47:00;24.55;;;22.45;;
52210;SDS011;38179;52.756;6.906;2022-08-01T02:49:33;24.38;;;22.38;;
52210;SDS011;38179;52.756;6.906;2022-08-01T02:52:08;23.08;;;21.35;;
52210;SDS011;38179;52.756;6.906;2022-08-01T02:54:37;23.40;;;21.60;;
52210;SDS011;38179;52.756;6.906;2022-08-01T02:57:05;24.35;;;22.20;;
52210;SDS011;38179;52.756;6.906;2022-08-01T02:59:33;23.40;;;21.60;;
52210;SDS011;38179;52.756;6.906;2022-08-01T03:02:02;24.13;;;22.10;;
52210;SDS011;38179;52.756;6.906;2022-08-01T03:04:30;22.77;;;21.08;;
52210;SDS011;38179;52.756;6.906;2022-08-01T03:07:02;23.02;;;21.13;;
52210;SDS011;38179;52.756;6.906;2022-08-01T03:09:32;22.70;;;21.05;;
52210;SDS011;38179;52.756;6.906;2022-08-01T03:12:03;23.98;;;22.08;;
52210;SDS011;38179;52.756;6.906;2022-08-01T03:14:32;25.10;;;23.10;;
52210;SDS011;38179;52.756;6.906;2022-08-01T03:17:04;23.10;;;21.40;;
52210;SDS011;38179;52.756;6.906;2022-08-01T03:19:31;23.42;;;21.50;;
52210;SDS011;38179;52.756;6.906;2022-08-01T03:21:58;22.98;;;21.08;;
52210;SDS011;38179;52.756;6.906;2022-08-01T03:24:28;23.60;;;21.48;;
52210;SDS011;38179;52.756;6.906;2022-08-01T03:26:56;21.38;;;19.85;;
52210;SDS011;38179;52.756;6.906;2022-08-01T03:29:24;21.95;;;20.33;;
52210;SDS011;38179;52.756;6.906;2022-08-01T03:31:52;21.65;;;20.00;;
52210;SDS011;38179;52.756;6.906;2022-08-01T03:34:18;22.92;;;20.77;;
52210;SDS011;38179;52.756;6.906;2022-08-01T03:37:11;22.25;;;20.40;;
52210;SDS011;38179;52.756;6.906;2022-08-01T03:39:58;22.10;;;20.50;;
52210;SDS011;38179;52.756;6.906;2022-08-01T03:42:32;22.23;;;20.42;;
52210;SDS011;38179;52.756;6.906;2022-08-01T03:45:07;21.70;;;20.02;;
52210;SDS011;38179;52.756;6.906;2022-08-01T03:47:34;21.55;;;19.85;;
52210;SDS011;38179;52.756;6.906;2022-08-01T03:50:02;21.55;;;19.42;;
52210;SDS011;38179;52.756;6.906;2022-08-01T03:52:31;21.20;;;19.60;;
52210;SDS011;38179;52.756;6.906;2022-08-01T03:54:59;21.20;;;19.38;;
52210;SDS011;38179;52.756;6.906;2022-08-01T03:57:30;20.60;;;19.00;;
52210;SDS011;38179;52.756;6.906;2022-08-01T03:59:59;21.98;;;20.10;;
52210;SDS011;38179;52.756;6.906;2022-08-01T04:02:26;20.50;;;19.00;;
52210;SDS011;38179;52.756;6.906;2022-08-01T04:04:54;20.63;;;19.05;;
52210;SDS011;38179;52.756;6.906;2022-08-01T04:09:49;21.33;;;19.52;;
52210;SDS011;38179;52.756;6.906;2022-08-01T04:12:15;20.80;;;19.10;;
52210;SDS011;38179;52.756;6.906;2022-08-01T04:14:40;21.27;;;19.58;;
52210;SDS011;38179;52.756;6.906;2022-08-01T04:17:06;20.88;;;19.23;;
52210;SDS011;38179;52.756;6.906;2022-08-01T04:19:32;20.80;;;19.30;;
52210;SDS011;38179;52.756;6.906;2022-08-01T04:21:58;20.65;;;18.95;;
52210;SDS011;38179;52.756;6.906;2022-08-01T04:24:25;20.13;;;18.48;;
52210;SDS011;38179;52.756;6.906;2022-08-01T04:26:55;21.25;;;19.55;;
52210;SDS011;38179;52.756;6.906;2022-08-01T04:29:25;21.17;;;19.45;;
52210;SDS011;38179;52.756;6.906;2022-08-01T04:31:54;21.08;;;19.05;;
52210;SDS011;38179;52.756;6.906;2022-08-01T04:34:23;21.40;;;19.67;;
52210;SDS011;38179;52.756;6.906;2022-08-01T04:36:52;21.58;;;19.80;;
52210;SDS011;38179;52.756;6.906;2022-08-01T04:41:48;21.00;;;19.30;;
52210;SDS011;38179;52.756;6.906;2022-08-01T04:44:16;21.40;;;19.60;;
52210;SDS011;38179;52.756;6.906;2022-08-01T04:46:41;21.23;;;19.27;;
52210;SDS011;38179;52.756;6.906;2022-08-01T04:49:08;21.50;;;19.42;;
52210;SDS011;38179;52.756;6.906;2022-08-01T04:51:37;21.23;;;19.47;;
52210;SDS011;38179;52.756;6.906;2022-08-01T04:54:17;20.98;;;19.30;;
52210;SDS011;38179;52.756;6.906;2022-08-01T04:56:43;20.95;;;19.15;;
52210;SDS011;38179;52.756;6.906;2022-08-01T04:59:09;21.20;;;19.45;;
52210;SDS011;38179;52.756;6.906;2022-08-01T05:01:53;21.90;;;19.75;;
52210;SDS011;38179;52.756;6.906;2022-08-01T05:04:19;21.98;;;19.83;;
52210;SDS011;38179;52.756;6.906;2022-08-01T05:06:45;22.08;;;20.05;;
52210;SDS011;38179;52.756;6.906;2022-08-01T05:09:11;22.15;;;20.25;;
52210;SDS011;38179;52.756;6.906;2022-08-01T05:11:37;20.52;;;18.92;;
52210;SDS011;38179;52.756;6.906;2022-08-01T05:14:03;22.38;;;20.40;;
52210;SDS011;38179;52.756;6.906;2022-08-01T05:16:28;22.48;;;20.20;;
52210;SDS011;38179;52.756;6.906;2022-08-01T05:18:54;22.35;;;20.15;;
52210;SDS011;38179;52.756;6.906;2022-08-01T05:21:20;22.10;;;20.10;;
52210;SDS011;38179;52.756;6.906;2022-08-01T05:23:46;21.80;;;19.90;;
52210;SDS011;38179;52.756;6.906;2022-08-01T05:26:14;21.65;;;19.50;;
52210;SDS011;38179;52.756;6.906;2022-08-01T05:28:40;22.33;;;20.23;;
52210;SDS011;38179;52.756;6.906;2022-08-01T05:31:07;22.58;;;20.67;;
52210;SDS011;38179;52.756;6.906;2022-08-01T05:33:33;22.27;;;20.10;;
52210;SDS011;38179;52.756;6.906;2022-08-01T05:36:02;22.00;;;19.92;;
52210;SDS011;38179;52.756;6.906;2022-08-01T05:38:28;23.15;;;20.30;;
52210;SDS011;38179;52.756;6.906;2022-08-01T05:40:54;22.38;;;20.13;;
52210;SDS011;38179;52.756;6.906;2022-08-01T05:43:20;22.05;;;19.90;;
52210;SDS011;38179;52.756;6.906;2022-08-01T05:45:46;22.63;;;20.60;;
52210;SDS011;38179;52.756;6.906;2022-08-01T05:48:12;22.48;;;20.15;;
52210;SDS011;38179;52.756;6.906;2022-08-01T05:50:38;22.70;;;20.70;;
52210;SDS011;38179;52.756;6.906;2022-08-01T05:53:04;22.42;;;20.40;;
52210;SDS011;38179;52.756;6.906;2022-08-01T05:55:29;26.15;;;20.80;;
52210;SDS011;38179;52.756;6.906;2022-08-01T05:57:55;23.40;;;20.98;;
52210;SDS011;38179;52.756;6.906;2022-08-01T06:00:21;24.42;;;21.90;;
52210;SDS011;38179;52.756;6.906;2022-08-01T06:02:47;23.95;;;21.38;;
52210;SDS011;38179;52.756;6.906;2022-08-01T06:05:13;23.23;;;21.08;;
52210;SDS011;38179;52.756;6.906;2022-08-01T06:07:39;23.60;;;20.85;;
52210;SDS011;38179;52.756;6.906;2022-08-01T06:10:05;23.58;;;21.02;;
52210;SDS011;38179;52.756;6.906;2022-08-01T06:12:33;22.33;;;20.30;;
52210;SDS011;38179;52.756;6.906;2022-08-01T06:14:59;23.05;;;20.77;;
52210;SDS011;38179;52.756;6.906;2022-08-01T06:17:25;23.15;;;20.75;;
52210;SDS011;38179;52.756;6.906;2022-08-01T06:19:51;22.20;;;20.10;;
52210;SDS011;38179;52.756;6.906;2022-08-01T06:22:17;22.27;;;20.13;;
52210;SDS011;38179;52.756;6.906;2022-08-01T06:24:42;22.38;;;20.00;;
52210;SDS011;38179;52.756;6.906;2022-08-01T06:27:08;22.67;;;20.48;;
52210;SDS011;38179;52.756;6.906;2022-08-01T06:29:34;26.02;;;20.55;;
52210;SDS011;38179;52.756;6.906;2022-08-01T06:32:00;22.98;;;20.65;;
52210;SDS011;38179;52.756;6.906;2022-08-01T06:34:26;22.70;;;20.20;;
52210;SDS011;38179;52.756;6.906;2022-08-01T06:36:52;22.40;;;20.08;;
52210;SDS011;38179;52.756;6.906;2022-08-01T06:39:18;23.23;;;20.33;;
52210;SDS011;38179;52.756;6.906;2022-08-01T06:41:43;22.50;;;20.05;;
52210;SDS011;38179;52.756;6.906;2022-08-01T06:44:12;22.80;;;20.27;;
52210;SDS011;38179;52.756;6.906;2022-08-01T06:46:38;23.48;;;19.90;;
52210;SDS011;38179;52.756;6.906;2022-08-01T06:49:04;25.05;;;20.55;;
52210;SDS011;38179;52.756;6.906;2022-08-01T06:51:30;23.73;;;20.75;;
52210;SDS011;38179;52.756;6.906;2022-08-01T06:53:56;22.88;;;20.58;;
52210;SDS011;38179;52.756;6.906;2022-08-01T06:56:22;24.42;;;20.70;;
52210;SDS011;38179;52.756;6.906;2022-08-01T06:58:51;23.05;;;20.77;;
52210;SDS011;38179;52.756;6.906;2022-08-01T07:01:17;22.75;;;20.10;;
52210;SDS011;38179;52.756;6.906;2022-08-01T07:03:43;22.55;;;20.05;;
52210;SDS011;38179;52.756;6.906;2022-08-01T07:06:09;24.33;;;20.65;;
52210;SDS011;38179;52.756;6.906;2022-08-01T07:08:35;23.80;;;21.35;;
52210;SDS011;38179;52.756;6.906;2022-08-01T07:11:01;23.33;;;20.67;;
52210;SDS011;38179;52.756;6.906;2022-08-01T07:13:28;25.20;;;20.50;;
52210;SDS011;38179;52.756;6.906;2022-08-01T07:15:56;23.65;;;20.50;;
52210;SDS011;38179;52.756;6.906;2022-08-01T07:18:22;25.63;;;20.25;;
52210;SDS011;38179;52.756;6.906;2022-08-01T07:20:48;22.35;;;19.75;;
52210;SDS011;38179;52.756;6.906;2022-08-01T07:23:15;29.95;;;21.02;;
52210;SDS011;38179;52.756;6.906;2022-08-01T07:25:41;23.23;;;20.67;;
52210;SDS011;38179;52.756;6.906;2022-08-01T07:28:07;22.98;;;20.58;;
52210;SDS011;38179;52.756;6.906;2022-08-01T07:30:33;30.13;;;21.35;;
52210;SDS011;38179;52.756;6.906;2022-08-01T07:33:00;26.30;;;20.58;;
52210;SDS011;38179;52.756;6.906;2022-08-01T07:35:26;25.95;;;20.42;;
52210;SDS011;38179;52.756;6.906;2022-08-01T07:37:52;27.70;;;21.02;;
52210;SDS011;38179;52.756;6.906;2022-08-01T07:40:18;25.25;;;21.40;;
52210;SDS011;38179;52.756;6.906;2022-08-01T07:42:45;22.92;;;20.15;;
52210;SDS011;38179;52.756;6.906;2022-08-01T07:45:12;25.35;;;20.65;;
52210;SDS011;38179;52.756;6.906;2022-08-01T07:47:38;26.50;;;20.55;;
52210;SDS011;38179;52.756;6.906;2022-08-01T07:50:05;25.27;;;20.25;;
52210;SDS011;38179;52.756;6.906;2022-08-01T07:52:32;22.02;;;19.02;;
52210;SDS011;38179;52.756;6.906;2022-08-01T07:54:58;27.75;;;20.92;;
52210;SDS011;38179;52.756;6.906;2022-08-01T07:57:24;23.50;;;20.98;;
52210;SDS011;38179;52.756;6.906;2022-08-01T07:59:50;40.63;;;21.90;;
52210;SDS011;38179;52.756;6.906;2022-08-01T08:02:16;22.58;;;20.02;;
52210;SDS011;38179;52.756;6.906;2022-08-01T08:04:42;22.98;;;20.58;;
52210;SDS011;38179;52.756;6.906;2022-08-01T08:07:08;28.60;;;20.42;;
52210;SDS011;38179;52.756;6.906;2022-08-01T08:09:34;24.45;;;20.33;;
52210;SDS011;38179;52.756;6.906;2022-08-01T08:12:00;22.63;;;19.70;;
52210;SDS011;38179;52.756;6.906;2022-08-01T08:14:26;26.25;;;20.73;;
52210;SDS011;38179;52.756;6.906;2022-08-01T08:16:52;25.30;;;20.70;;
52210;SDS011;38179;52.756;6.906;2022-08-01T08:19:18;25.00;;;21.48;;
52210;SDS011;38179;52.756;6.906;2022-08-01T08:21:44;32.00;;;20.77;;
52210;SDS011;38179;52.756;6.906;2022-08-01T08:24:10;27.55;;;21.58;;
52210;SDS011;38179;52.756;6.906;2022-08-01T08:26:44;25.63;;;20.92;;
52210;SDS011;38179;52.756;6.906;2022-08-01T08:29:14;26.02;;;20.83;;
52210;SDS011;38179;52.756;6.906;2022-08-01T08:31:40;32.13;;;21.25;;
52210;SDS011;38179;52.756;6.906;2022-08-01T08:34:06;23.10;;;20.30;;
52210;SDS011;38179;52.756;6.906;2022-08-01T08:36:32;24.25;;;20.45;;
52210;SDS011;38179;52.756;6.906;2022-08-01T08:38:58;25.80;;;21.08;;
52210;SDS011;38179;52.756;6.906;2022-08-01T08:41:31;24.42;;;21.45;;
52210;SDS011;38179;52.756;6.906;2022-08-01T08:43:57;26.13;;;21.60;;
52210;SDS011;38179;52.756;6.906;2022-08-01T08:46:25;24.35;;;21.35;;
52210;SDS011;38179;52.756;6.906;2022-08-01T08:48:53;25.88;;;20.42;;
52210;SDS011;38179;52.756;6.906;2022-08-01T08:51:20;23.08;;;20.35;;
52210;SDS011;38179;52.756;6.906;2022-08-01T08:53:48;23.17;;;20.63;;
52210;SDS011;38179;52.756;6.906;2022-08-01T08:56:17;23.92;;;20.67;;
52210;SDS011;38179;52.756;6.906;2022-08-01T08:58:44;23.05;;;20.60;;
52210;SDS011;38179;52.756;6.906;2022-08-01T09:01:11;24.23;;;21.73;;
52210;SDS011;38179;52.756;6.906;2022-08-01T09:03:38;23.25;;;20.95;;
52210;SDS011;38179;52.756;6.906;2022-08-01T09:06:05;26.27;;;20.52;;
52210;SDS011;38179;52.756;6.906;2022-08-01T09:08:32;23.38;;;21.10;;
52210;SDS011;38179;52.756;6.906;2022-08-01T09:10:58;24.38;;;20.83;;
52210;SDS011;38179;52.756;6.906;2022-08-01T09:13:24;24.63;;;21.50;;
52210;SDS011;38179;52.756;6.906;2022-08-01T09:15:51;23.08;;;20.58;;
52210;SDS011;38179;52.756;6.906;2022-08-01T09:23:34;27.08;;;21.50;;
52210;SDS011;38179;52.756;6.906;2022-08-01T09:26:17;23.30;;;20.38;;
52210;SDS011;38179;52.756;6.906;2022-08-01T09:28:46;22.40;;;20.02;;
52210;SDS011;38179;52.756;6.906;2022-08-01T09:31:13;26.25;;;20.88;;
52210;SDS011;38179;52.756;6.906;2022-08-01T09:34:15;24.80;;;20.88;;
52210;SDS011;38179;52.756;6.906;2022-08-01T09:36:45;22.80;;;20.55;;
52210;SDS011;38179;52.756;6.906;2022-08-01T09:39:25;26.15;;;21.08;;
52210;SDS011;38179;52.756;6.906;2022-08-01T09:41:53;22.48;;;20.30;;
52210;SDS011;38179;52.756;6.906;2022-08-01T09:44:36;23.40;;;20.83;;
52210;SDS011;38179;52.756;6.906;2022-08-01T09:47:09;25.02;;;21.30;;
52210;SDS011;38179;52.756;6.906;2022-08-01T09:49:36;23.25;;;20.75;;
52210;SDS011;38179;52.756;6.906;2022-08-01T09:52:25;23.35;;;20.85;;
52210;SDS011;38179;52.756;6.906;2022-08-01T09:54:52;23.40;;;20.90;;
52210;SDS011;38179;52.756;6.906;2022-08-01T09:57:20;23.33;;;20.98;;
52210;SDS011;38179;52.756;6.906;2022-08-01T09:59:47;26.05;;;21.08;;
52210;SDS011;38179;52.756;6.906;2022-08-01T10:02:28;28.63;;;20.23;;
52210;SDS011;38179;52.756;6.906;2022-08-01T10:05:06;22.40;;;20.15;;
52210;SDS011;38179;52.756;6.906;2022-08-01T10:07:33;26.17;;;21.10;;
52210;SDS011;38179;52.756;6.906;2022-08-01T10:10:20;24.45;;;21.77;;
52210;SDS011;38179;52.756;6.906;2022-08-01T10:12:45;23.10;;;20.77;;
52210;SDS011;38179;52.756;6.906;2022-08-01T10:15:16;21.85;;;19.50;;
52210;SDS011;38179;52.756;6.906;2022-08-01T10:17:46;21.85;;;19.95;;
52210;SDS011;38179;52.756;6.906;2022-08-01T10:20:32;23.05;;;20.75;;
52210;SDS011;38179;52.756;6.906;2022-08-01T10:22:59;21.67;;;19.50;;
52210;SDS011;38179;52.756;6.906;2022-08-01T10:25:27;22.13;;;19.83;;
52210;SDS011;38179;52.756;6.906;2022-08-01T10:27:58;21.63;;;19.50;;
52210;SDS011;38179;52.756;6.906;2022-08-01T10:30:26;22.00;;;19.80;;
52210;SDS011;38179;52.756;6.906;2022-08-01T10:32:53;22.38;;;20.30;;
52210;SDS011;38179;52.756;6.906;2022-08-01T10:35:20;23.00;;;20.60;;
52210;SDS011;38179;52.756;6.906;2022-08-01T10:37:46;22.35;;;20.05;;
52210;SDS011;38179;52.756;6.906;2022-08-01T10:40:13;25.35;;;21.13;;
52210;SDS011;38179;52.756;6.906;2022-08-01T10:42:44;22.15;;;19.92;;
52210;SDS011;38179;52.756;6.906;2022-08-01T10:45:14;22.17;;;19.88;;
52210;SDS011;38179;52.756;6.906;2022-08-01T10:50:28;22.10;;;19.70;;
52210;SDS011;38179;52.756;6.906;2022-08-01T10:53:10;22.85;;;20.48;;
52210;SDS011;38179;52.756;6.906;2022-08-01T10:55:45;22.02;;;20.08;;
52210;SDS011;38179;52.756;6.906;2022-08-01T10:58:21;23.95;;;20.73;;
52210;SDS011;38179;52.756;6.906;2022-08-01T11:03:39;22.70;;;20.35;;
52210;SDS011;38179;52.756;6.906;2022-08-01T11:06:06;22.52;;;20.25;;
52210;SDS011;38179;52.756;6.906;2022-08-01T11:08:40;22.80;;;20.48;;
52210;SDS011;38179;52.756;6.906;2022-08-01T11:11:15;26.23;;;20.67;;
52210;SDS011;38179;52.756;6.906;2022-08-01T11:16:26;21.23;;;19.42;;
52210;SDS011;38179;52.756;6.906;2022-08-01T11:18:53;22.40;;;20.27;;
52210;SDS011;38179;52.756;6.906;2022-08-01T11:21:19;22.17;;;20.17;;
52210;SDS011;38179;52.756;6.906;2022-08-01T11:23:49;22.08;;;19.85;;
52210;SDS011;38179;52.756;6.906;2022-08-01T11:26:19;22.50;;;20.50;;
52210;SDS011;38179;52.756;6.906;2022-08-01T11:29:10;22.08;;;19.83;;
52210;SDS011;38179;52.756;6.906;2022-08-01T11:31:42;21.33;;;19.08;;
52210;SDS011;38179;52.756;6.906;2022-08-01T11:34:09;21.73;;;19.83;;
52210;SDS011;38179;52.756;6.906;2022-08-01T11:36:35;21.85;;;19.73;;
52210;SDS011;38179;52.756;6.906;2022-08-01T11:41:30;22.45;;;20.35;;
52210;SDS011;38179;52.756;6.906;2022-08-01T11:44:02;21.93;;;20.07;;
52210;SDS011;38179;52.756;6.906;2022-08-01T11:49:32;22.05;;;19.77;;
52210;SDS011;38179;52.756;6.906;2022-08-01T11:54:46;23.20;;;20.02;;
52210;SDS011;38179;52.756;6.906;2022-08-01T11:57:14;23.73;;;20.48;;
52210;SDS011;38179;52.756;6.906;2022-08-01T11:59:44;21.92;;;19.98;;
52210;SDS011;38179;52.756;6.906;2022-08-01T12:02:17;21.15;;;19.45;;
52210;SDS011;38179;52.756;6.906;2022-08-01T12:09:47;22.48;;;20.13;;
52210;SDS011;38179;52.756;6.906;2022-08-01T12:12:17;31.65;;;21.00;;
52210;SDS011;38179;52.756;6.906;2022-08-01T12:14:45;21.65;;;19.80;;
52210;SDS011;38179;52.756;6.906;2022-08-01T12:17:17;21.70;;;19.88;;
52210;SDS011;38179;52.756;6.906;2022-08-01T12:19:43;22.38;;;20.08;;
52210;SDS011;38179;52.756;6.906;2022-08-01T12:22:14;22.23;;;20.15;;
52210;SDS011;38179;52.756;6.906;2022-08-01T12:24:41;22.60;;;20.40;;
52210;SDS011;38179;52.756;6.906;2022-08-01T12:27:08;21.77;;;19.83;;
52210;SDS011;38179;52.756;6.906;2022-08-01T12:29:37;21.25;;;19.55;;
52210;SDS011;38179;52.756;6.906;2022-08-01T12:32:25;22.50;;;20.42;;
52210;SDS011;38179;52.756;6.906;2022-08-01T12:34:52;21.40;;;19.45;;
52210;SDS011;38179;52.756;6.906;2022-08-01T12:37:19;21.60;;;19.83;;
52210;SDS011;38179;52.756;6.906;2022-08-01T12:39:46;21.63;;;19.80;;
52210;SDS011;38179;52.756;6.906;2022-08-01T12:42:12;21.55;;;19.58;;
52210;SDS011;38179;52.756;6.906;2022-08-01T12:44:39;21.63;;;19.77;;
52210;SDS011;38179;52.756;6.906;2022-08-01T12:47:07;21.08;;;19.23;;
52210;SDS011;38179;52.756;6.906;2022-08-01T12:49:35;22.15;;;20.25;;
52210;SDS011;38179;52.756;6.906;2022-08-01T12:52:02;21.27;;;19.45;;
52210;SDS011;38179;52.756;6.906;2022-08-01T12:54:29;20.50;;;18.67;;
52210;SDS011;38179;52.756;6.906;2022-08-01T12:56:55;21.98;;;19.77;;
52210;SDS011;38179;52.756;6.906;2022-08-01T12:59:22;22.52;;;20.33;;
52210;SDS011;38179;52.756;6.906;2022-08-01T13:01:53;21.50;;;19.60;;
52210;SDS011;38179;52.756;6.906;2022-08-01T13:04:20;21.15;;;19.05;;
52210;SDS011;38179;52.756;6.906;2022-08-01T13:06:48;38.15;;;19.30;;
52210;SDS011;38179;52.756;6.906;2022-08-01T13:09:18;21.55;;;19.85;;
52210;SDS011;38179;52.756;6.906;2022-08-01T13:11:44;21.63;;;19.83;;
52210;SDS011;38179;52.756;6.906;2022-08-01T13:14:26;21.80;;;20.00;;
52210;SDS011;38179;52.756;6.906;2022-08-01T13:16:53;22.00;;;20.15;;
52210;SDS011;38179;52.756;6.906;2022-08-01T13:19:18;21.30;;;19.48;;
52210;SDS011;38179;52.756;6.906;2022-08-01T13:21:54;21.58;;;19.67;;
52210;SDS011;38179;52.756;6.906;2022-08-01T13:24:26;21.70;;;19.85;;
52210;SDS011;38179;52.756;6.906;2022-08-01T13:26:55;22.10;;;20.15;;
52210;SDS011;38179;52.756;6.906;2022-08-01T13:29:37;21.90;;;19.88;;
52210;SDS011;38179;52.756;6.906;2022-08-01T13:32:19;22.15;;;20.05;;
52210;SDS011;38179;52.756;6.906;2022-08-01T13:34:46;21.13;;;19.15;;
52210;SDS011;38179;52.756;6.906;2022-08-01T13:37:12;20.98;;;19.17;;
52210;SDS011;38179;52.756;6.906;2022-08-01T13:39:38;21.90;;;19.90;;
52210;SDS011;38179;52.756;6.906;2022-08-01T13:42:09;21.55;;;19.73;;
52210;SDS011;38179;52.756;6.906;2022-08-01T13:44:40;21.77;;;19.85;;
52210;SDS011;38179;52.756;6.906;2022-08-01T13:47:07;21.23;;;19.13;;
52210;SDS011;38179;52.756;6.906;2022-08-01T13:49:34;21.80;;;19.88;;
52210;SDS011;38179;52.756;6.906;2022-08-01T13:52:00;22.48;;;20.25;;
52210;SDS011;38179;52.756;6.906;2022-08-01T13:54:27;21.83;;;20.00;;
52210;SDS011;38179;52.756;6.906;2022-08-01T13:56:53;23.50;;;21.48;;
52210;SDS011;38179;52.756;6.906;2022-08-01T13:59:19;21.95;;;20.13;;
52210;SDS011;38179;52.756;6.906;2022-08-01T14:01:45;21.90;;;19.85;;
52210;SDS011;38179;52.756;6.906;2022-08-01T14:04:11;21.80;;;19.85;;
52210;SDS011;38179;52.756;6.906;2022-08-01T14:06:38;22.67;;;20.73;;
52210;SDS011;38179;52.756;6.906;2022-08-01T14:09:04;22.30;;;20.45;;
52210;SDS011;38179;52.756;6.906;2022-08-01T14:11:31;21.45;;;19.85;;
52210;SDS011;38179;52.756;6.906;2022-08-01T14:13:57;22.48;;;20.38;;
52210;SDS011;38179;52.756;6.906;2022-08-01T14:16:24;21.88;;;20.17;;
52210;SDS011;38179;52.756;6.906;2022-08-01T14:18:50;22.13;;;20.23;;
52210;SDS011;38179;52.756;6.906;2022-08-01T14:21:16;22.55;;;20.38;;
52210;SDS011;38179;52.756;6.906;2022-08-01T14:23:42;22.52;;;20.70;;
52210;SDS011;38179;52.756;6.906;2022-08-01T14:26:08;22.55;;;20.50;;
52210;SDS011;38179;52.756;6.906;2022-08-01T14:28:35;22.33;;;20.52;;
52210;SDS011;38179;52.756;6.906;2022-08-01T14:31:02;22.52;;;20.42;;
52210;SDS011;38179;52.756;6.906;2022-08-01T14:33:28;22.17;;;20.23;;
52210;SDS011;38179;52.756;6.906;2022-08-01T14:35:55;22.77;;;20.70;;
52210;SDS011;38179;52.756;6.906;2022-08-01T14:38:21;22.60;;;20.80;;
52210;SDS011;38179;52.756;6.906;2022-08-01T14:40:47;22.65;;;20.75;;
52210;SDS011;38179;52.756;6.906;2022-08-01T14:45:42;22.40;;;20.48;;
52210;SDS011;38179;52.756;6.906;2022-08-01T14:48:09;22.48;;;20.38;;
52210;SDS011;38179;52.756;6.906;2022-08-01T14:50:35;22.95;;;20.52;;
52210;SDS011;38179;52.756;6.906;2022-08-01T14:53:01;22.75;;;20.75;;
52210;SDS011;38179;52.756;6.906;2022-08-01T14:55:27;22.48;;;20.38;;
52210;SDS011;38179;52.756;6.906;2022-08-01T14:57:53;22.60;;;20.50;;
52210;SDS011;38179;52.756;6.906;2022-08-01T15:00:19;22.52;;;20.67;;
52210;SDS011;38179;52.756;6.906;2022-08-01T15:02:45;22.55;;;20.85;;
52210;SDS011;38179;52.756;6.906;2022-08-01T15:32:56;22.88;;;20.85;;
52210;SDS011;38179;52.756;6.906;2022-08-01T15:35:22;22.45;;;20.55;;
52210;SDS011;38179;52.756;6.906;2022-08-01T15:37:48;23.02;;;21.13;;
52210;SDS011;38179;52.756;6.906;2022-08-01T15:48:27;22.60;;;20.80;;
52210;SDS011;38179;52.756;6.906;2022-08-01T15:56:03;23.08;;;21.08;;
52210;SDS011;38179;52.756;6.906;2022-08-01T15:58:29;22.92;;;20.90;;